sensor_id;sensor_type;location;lat;lon;timestamp;P1;durP1;ratioP1;P2;durP2;ratioP2
37945;SDS011;23769;52.478;13.448;2022-10-22T00:01:32;19.60;;;14.65;;
37945;SDS011;23769;52.478;13.448;2022-10-22T00:04:00;19.80;;;14.07;;
37945;SDS011;23769;52.478;13.448;2022-10-22T00:06:27;19.15;;;13.95;;
37945;SDS011;23769;52.478;13.448;2022-10-22T00:08:55;17.80;;;13.98;;
37945;SDS011;23769;52.478;13.448;2022-10-22T00:11:22;19.88;;;16.25;;
37945;SDS011;23769;52.478;13.448;2022-10-22T00:13:49;19.17;;;13.98;;
37945;SDS011;23769;52.478;13.448;2022-10-22T00:16:16;19.30;;;13.85;;
37945;SDS011;23769;52.478;13.448;2022-10-22T00:18:43;17.30;;;13.60;;
37945;SDS011;23769;52.478;13.448;2022-10-22T00:21:11;20.40;;;14.77;;
37945;SDS011;23769;52.478;13.448;2022-10-22T00:23:39;21.55;;;14.43;;
37945;SDS011;23769;52.478;13.448;2022-10-22T00:26:06;16.08;;;12.98;;
37945;SDS011;23769;52.478;13.448;2022-10-22T00:28:33;20.33;;;14.40;;
37945;SDS011;23769;52.478;13.448;2022-10-22T00:31:00;18.52;;;13.80;;
37945;SDS011;23769;52.478;13.448;2022-10-22T00:33:28;20.65;;;14.48;;
37945;SDS011;23769;52.478;13.448;2022-10-22T00:35:55;20.15;;;15.10;;
37945;SDS011;23769;52.478;13.448;2022-10-22T00:38:24;22.10;;;16.08;;
37945;SDS011;23769;52.478;13.448;2022-10-22T00:40:51;20.08;;;14.55;;
37945;SDS011;23769;52.478;13.448;2022-10-22T00:43:18;23.63;;;16.65;;
37945;SDS011;23769;52.478;13.448;2022-10-22T00:45:45;21.73;;;15.43;;
37945;SDS011;23769;52.478;13.448;2022-10-22T00:48:13;19.70;;;13.63;;
37945;SDS011;23769;52.478;13.448;2022-10-22T00:50:42;18.70;;;14.50;;
37945;SDS011;23769;52.478;13.448;2022-10-22T00:53:11;20.33;;;14.75;;
37945;SDS011;23769;52.478;13.448;2022-10-22T00:55:41;20.10;;;14.77;;
37945;SDS011;23769;52.478;13.448;2022-10-22T00:58:09;18.77;;;14.13;;
37945;SDS011;23769;52.478;13.448;2022-10-22T01:00:36;18.48;;;14.75;;
37945;SDS011;23769;52.478;13.448;2022-10-22T01:03:03;21.05;;;15.38;;
37945;SDS011;23769;52.478;13.448;2022-10-22T01:05:32;19.10;;;15.02;;
37945;SDS011;23769;52.478;13.448;2022-10-22T01:08:00;19.88;;;14.90;;
37945;SDS011;23769;52.478;13.448;2022-10-22T01:10:34;19.50;;;13.98;;
37945;SDS011;23769;52.478;13.448;2022-10-22T01:13:07;24.23;;;14.98;;
37945;SDS011;23769;52.478;13.448;2022-10-22T01:15:39;20.10;;;13.27;;
37945;SDS011;23769;52.478;13.448;2022-10-22T01:18:09;22.25;;;15.98;;
37945;SDS011;23769;52.478;13.448;2022-10-22T01:20:45;25.95;;;16.10;;
37945;SDS011;23769;52.478;13.448;2022-10-22T01:23:23;19.67;;;14.43;;
37945;SDS011;23769;52.478;13.448;2022-10-22T01:25:55;20.20;;;14.25;;
37945;SDS011;23769;52.478;13.448;2022-10-22T01:30:55;19.75;;;15.10;;
37945;SDS011;23769;52.478;13.448;2022-10-22T01:33:24;21.05;;;15.30;;
37945;SDS011;23769;52.478;13.448;2022-10-22T01:35:52;27.63;;;17.25;;
37945;SDS011;23769;52.478;13.448;2022-10-22T01:38:20;19.42;;;14.32;;
37945;SDS011;23769;52.478;13.448;2022-10-22T01:40:48;22.10;;;14.57;;
37945;SDS011;23769;52.478;13.448;2022-10-22T01:43:16;16.77;;;12.23;;
37945;SDS011;23769;52.478;13.448;2022-10-22T01:45:44;19.92;;;15.38;;
37945;SDS011;23769;52.478;13.448;2022-10-22T01:48:18;19.48;;;14.90;;
37945;SDS011;23769;52.478;13.448;2022-10-22T01:50:52;21.75;;;15.35;;
37945;SDS011;23769;52.478;13.448;2022-10-22T01:53:25;19.33;;;14.88;;
37945;SDS011;23769;52.478;13.448;2022-10-22T01:55:55;20.75;;;14.27;;
37945;SDS011;23769;52.478;13.448;2022-10-22T01:58:28;18.85;;;14.02;;
37945;SDS011;23769;52.478;13.448;2022-10-22T02:00:58;19.42;;;14.80;;
37945;SDS011;23769;52.478;13.448;2022-10-22T02:03:29;21.00;;;15.50;;
37945;SDS011;23769;52.478;13.448;2022-10-22T02:05:58;20.77;;;15.68;;
37945;SDS011;23769;52.478;13.448;2022-10-22T02:08:28;19.90;;;15.05;;
37945;SDS011;23769;52.478;13.448;2022-10-22T02:10:57;21.90;;;15.60;;
37945;SDS011;23769;52.478;13.448;2022-10-22T02:13:24;18.23;;;13.77;;
37945;SDS011;23769;52.478;13.448;2022-10-22T02:15:53;19.52;;;13.77;;
37945;SDS011;23769;52.478;13.448;2022-10-22T02:18:22;18.38;;;14.13;;
37945;SDS011;23769;52.478;13.448;2022-10-22T02:20:51;20.80;;;13.75;;
37945;SDS011;23769;52.478;13.448;2022-10-22T02:23:19;21.25;;;13.52;;
37945;SDS011;23769;52.478;13.448;2022-10-22T02:25:48;25.33;;;17.73;;
37945;SDS011;23769;52.478;13.448;2022-10-22T02:28:19;20.05;;;14.20;;
37945;SDS011;23769;52.478;13.448;2022-10-22T02:30:50;18.60;;;13.55;;
37945;SDS011;23769;52.478;13.448;2022-10-22T02:33:19;21.05;;;14.63;;
37945;SDS011;23769;52.478;13.448;2022-10-22T02:35:48;19.83;;;13.98;;
37945;SDS011;23769;52.478;13.448;2022-10-22T02:38:16;16.92;;;13.35;;
37945;SDS011;23769;52.478;13.448;2022-10-22T02:40:45;17.38;;;13.38;;
37945;SDS011;23769;52.478;13.448;2022-10-22T02:43:12;16.13;;;12.90;;
37945;SDS011;23769;52.478;13.448;2022-10-22T02:45:39;20.05;;;13.23;;
37945;SDS011;23769;52.478;13.448;2022-10-22T02:48:06;19.05;;;13.50;;
37945;SDS011;23769;52.478;13.448;2022-10-22T02:50:33;18.65;;;13.68;;
37945;SDS011;23769;52.478;13.448;2022-10-22T02:53:00;18.20;;;14.07;;
37945;SDS011;23769;52.478;13.448;2022-10-22T02:55:29;19.92;;;13.90;;
37945;SDS011;23769;52.478;13.448;2022-10-22T02:57:56;21.45;;;14.77;;
37945;SDS011;23769;52.478;13.448;2022-10-22T03:00:23;20.25;;;14.07;;
37945;SDS011;23769;52.478;13.448;2022-10-22T03:02:50;18.30;;;14.00;;
37945;SDS011;23769;52.478;13.448;2022-10-22T03:05:17;21.67;;;14.60;;
37945;SDS011;23769;52.478;13.448;2022-10-22T03:07:44;26.30;;;16.67;;
37945;SDS011;23769;52.478;13.448;2022-10-22T03:10:11;17.80;;;13.68;;
37945;SDS011;23769;52.478;13.448;2022-10-22T03:12:39;20.92;;;14.15;;
37945;SDS011;23769;52.478;13.448;2022-10-22T03:15:07;22.52;;;14.82;;
37945;SDS011;23769;52.478;13.448;2022-10-22T03:17:34;17.33;;;13.30;;
37945;SDS011;23769;52.478;13.448;2022-10-22T03:20:01;16.42;;;12.23;;
37945;SDS011;23769;52.478;13.448;2022-10-22T03:22:28;16.48;;;12.20;;
37945;SDS011;23769;52.478;13.448;2022-10-22T03:24:59;15.27;;;12.27;;
37945;SDS011;23769;52.478;13.448;2022-10-22T03:27:27;15.45;;;11.95;;
37945;SDS011;23769;52.478;13.448;2022-10-22T03:29:56;16.13;;;11.80;;
37945;SDS011;23769;52.478;13.448;2022-10-22T03:32:23;17.40;;;13.85;;
37945;SDS011;23769;52.478;13.448;2022-10-22T03:34:50;16.92;;;12.63;;
37945;SDS011;23769;52.478;13.448;2022-10-22T03:37:18;17.45;;;13.63;;
37945;SDS011;23769;52.478;13.448;2022-10-22T03:39:45;20.23;;;14.10;;
37945;SDS011;23769;52.478;13.448;2022-10-22T03:42:12;15.70;;;12.77;;
37945;SDS011;23769;52.478;13.448;2022-10-22T03:44:40;17.13;;;12.73;;
37945;SDS011;23769;52.478;13.448;2022-10-22T03:47:08;15.30;;;12.07;;
37945;SDS011;23769;52.478;13.448;2022-10-22T03:49:35;18.50;;;13.00;;
37945;SDS011;23769;52.478;13.448;2022-10-22T03:52:04;16.90;;;12.90;;
37945;SDS011;23769;52.478;13.448;2022-10-22T03:54:31;17.15;;;12.52;;
37945;SDS011;23769;52.478;13.448;2022-10-22T03:56:58;17.80;;;13.32;;
37945;SDS011;23769;52.478;13.448;2022-10-22T03:59:25;16.65;;;12.43;;
37945;SDS011;23769;52.478;13.448;2022-10-22T04:01:52;16.73;;;12.57;;
37945;SDS011;23769;52.478;13.448;2022-10-22T04:04:20;14.52;;;12.25;;
37945;SDS011;23769;52.478;13.448;2022-10-22T04:06:47;17.20;;;12.60;;
37945;SDS011;23769;52.478;13.448;2022-10-22T04:09:15;15.88;;;12.32;;
37945;SDS011;23769;52.478;13.448;2022-10-22T04:11:42;15.85;;;12.27;;
37945;SDS011;23769;52.478;13.448;2022-10-22T04:14:09;16.50;;;11.77;;
37945;SDS011;23769;52.478;13.448;2022-10-22T04:16:38;16.25;;;12.23;;
37945;SDS011;23769;52.478;13.448;2022-10-22T04:19:05;18.05;;;12.35;;
37945;SDS011;23769;52.478;13.448;2022-10-22T04:21:34;16.90;;;11.73;;
37945;SDS011;23769;52.478;13.448;2022-10-22T04:24:01;16.77;;;12.85;;
37945;SDS011;23769;52.478;13.448;2022-10-22T04:26:28;16.45;;;12.18;;
37945;SDS011;23769;52.478;13.448;2022-10-22T04:28:55;21.50;;;15.15;;
37945;SDS011;23769;52.478;13.448;2022-10-22T04:31:23;26.70;;;19.63;;
37945;SDS011;23769;52.478;13.448;2022-10-22T04:33:51;21.77;;;15.25;;
37945;SDS011;23769;52.478;13.448;2022-10-22T04:36:19;19.50;;;13.70;;
37945;SDS011;23769;52.478;13.448;2022-10-22T04:38:51;19.50;;;14.05;;
37945;SDS011;23769;52.478;13.448;2022-10-22T04:41:18;18.90;;;13.57;;
37945;SDS011;23769;52.478;13.448;2022-10-22T04:43:46;19.08;;;14.38;;
37945;SDS011;23769;52.478;13.448;2022-10-22T04:46:14;23.05;;;16.08;;
37945;SDS011;23769;52.478;13.448;2022-10-22T04:48:41;20.95;;;15.27;;
37945;SDS011;23769;52.478;13.448;2022-10-22T04:51:10;21.67;;;15.52;;
37945;SDS011;23769;52.478;13.448;2022-10-22T04:53:37;19.92;;;13.93;;
37945;SDS011;23769;52.478;13.448;2022-10-22T04:56:10;21.58;;;14.30;;
37945;SDS011;23769;52.478;13.448;2022-10-22T04:58:37;17.38;;;12.82;;
37945;SDS011;23769;52.478;13.448;2022-10-22T05:01:09;25.63;;;15.75;;
37945;SDS011;23769;52.478;13.448;2022-10-22T05:03:36;19.58;;;14.02;;
37945;SDS011;23769;52.478;13.448;2022-10-22T05:06:03;19.10;;;13.55;;
37945;SDS011;23769;52.478;13.448;2022-10-22T05:08:30;19.52;;;13.75;;
37945;SDS011;23769;52.478;13.448;2022-10-22T05:10:57;16.55;;;12.95;;
37945;SDS011;23769;52.478;13.448;2022-10-22T05:13:26;20.10;;;13.68;;
37945;SDS011;23769;52.478;13.448;2022-10-22T05:15:53;19.38;;;13.85;;
37945;SDS011;23769;52.478;13.448;2022-10-22T05:18:20;18.65;;;13.88;;
37945;SDS011;23769;52.478;13.448;2022-10-22T05:20:47;18.00;;;13.25;;
37945;SDS011;23769;52.478;13.448;2022-10-22T05:23:14;18.90;;;13.15;;
37945;SDS011;23769;52.478;13.448;2022-10-22T05:25:41;18.02;;;13.63;;
37945;SDS011;23769;52.478;13.448;2022-10-22T05:28:08;18.00;;;14.02;;
37945;SDS011;23769;52.478;13.448;2022-10-22T05:30:36;19.55;;;14.07;;
37945;SDS011;23769;52.478;13.448;2022-10-22T05:33:03;18.63;;;14.05;;
37945;SDS011;23769;52.478;13.448;2022-10-22T05:35:30;21.13;;;14.13;;
37945;SDS011;23769;52.478;13.448;2022-10-22T05:37:57;18.45;;;13.55;;
37945;SDS011;23769;52.478;13.448;2022-10-22T05:40:25;20.40;;;13.95;;
37945;SDS011;23769;52.478;13.448;2022-10-22T05:42:52;19.90;;;14.95;;
37945;SDS011;23769;52.478;13.448;2022-10-22T05:45:19;18.60;;;13.93;;
37945;SDS011;23769;52.478;13.448;2022-10-22T05:47:47;20.17;;;14.18;;
37945;SDS011;23769;52.478;13.448;2022-10-22T05:50:14;21.65;;;16.60;;
37945;SDS011;23769;52.478;13.448;2022-10-22T05:52:41;26.20;;;18.50;;
37945;SDS011;23769;52.478;13.448;2022-10-22T05:55:08;22.20;;;16.92;;
37945;SDS011;23769;52.478;13.448;2022-10-22T05:57:35;21.20;;;15.57;;
37945;SDS011;23769;52.478;13.448;2022-10-22T06:00:03;19.17;;;14.23;;
37945;SDS011;23769;52.478;13.448;2022-10-22T06:02:30;23.80;;;15.60;;
37945;SDS011;23769;52.478;13.448;2022-10-22T06:04:58;23.42;;;15.13;;
37945;SDS011;23769;52.478;13.448;2022-10-22T06:07:25;29.90;;;20.80;;
37945;SDS011;23769;52.478;13.448;2022-10-22T06:09:52;26.33;;;19.83;;
37945;SDS011;23769;52.478;13.448;2022-10-22T06:12:20;22.55;;;15.02;;
37945;SDS011;23769;52.478;13.448;2022-10-22T06:14:47;19.42;;;14.27;;
37945;SDS011;23769;52.478;13.448;2022-10-22T06:17:14;18.80;;;13.55;;
37945;SDS011;23769;52.478;13.448;2022-10-22T06:19:41;21.45;;;14.43;;
37945;SDS011;23769;52.478;13.448;2022-10-22T06:22:09;19.98;;;14.18;;
37945;SDS011;23769;52.478;13.448;2022-10-22T06:24:36;20.08;;;14.82;;
37945;SDS011;23769;52.478;13.448;2022-10-22T06:27:03;20.08;;;14.35;;
37945;SDS011;23769;52.478;13.448;2022-10-22T06:29:30;20.23;;;14.45;;
37945;SDS011;23769;52.478;13.448;2022-10-22T06:31:58;21.40;;;15.18;;
37945;SDS011;23769;52.478;13.448;2022-10-22T06:34:25;21.38;;;14.30;;
37945;SDS011;23769;52.478;13.448;2022-10-22T06:36:52;19.40;;;14.95;;
37945;SDS011;23769;52.478;13.448;2022-10-22T06:39:20;18.63;;;13.30;;
37945;SDS011;23769;52.478;13.448;2022-10-22T06:41:47;19.90;;;14.80;;
37945;SDS011;23769;52.478;13.448;2022-10-22T06:44:15;18.33;;;13.90;;
37945;SDS011;23769;52.478;13.448;2022-10-22T06:46:42;18.05;;;12.70;;
37945;SDS011;23769;52.478;13.448;2022-10-22T06:49:11;21.02;;;14.52;;
37945;SDS011;23769;52.478;13.448;2022-10-22T06:51:38;17.52;;;13.68;;
37945;SDS011;23769;52.478;13.448;2022-10-22T06:54:05;18.05;;;13.55;;
37945;SDS011;23769;52.478;13.448;2022-10-22T06:56:34;18.35;;;13.48;;
37945;SDS011;23769;52.478;13.448;2022-10-22T06:59:01;17.60;;;13.40;;
37945;SDS011;23769;52.478;13.448;2022-10-22T07:01:29;17.40;;;12.82;;
37945;SDS011;23769;52.478;13.448;2022-10-22T07:03:56;21.27;;;14.45;;
37945;SDS011;23769;52.478;13.448;2022-10-22T07:06:24;15.57;;;11.02;;
37945;SDS011;23769;52.478;13.448;2022-10-22T07:08:52;18.02;;;13.05;;
37945;SDS011;23769;52.478;13.448;2022-10-22T07:11:20;18.20;;;12.35;;
37945;SDS011;23769;52.478;13.448;2022-10-22T07:13:49;18.70;;;11.95;;
37945;SDS011;23769;52.478;13.448;2022-10-22T07:16:16;15.80;;;11.80;;
37945;SDS011;23769;52.478;13.448;2022-10-22T07:18:44;16.65;;;11.50;;
37945;SDS011;23769;52.478;13.448;2022-10-22T07:21:12;15.05;;;11.90;;
37945;SDS011;23769;52.478;13.448;2022-10-22T07:23:39;15.45;;;12.60;;
37945;SDS011;23769;52.478;13.448;2022-10-22T07:26:06;15.38;;;12.38;;
37945;SDS011;23769;52.478;13.448;2022-10-22T07:28:34;16.20;;;11.75;;
37945;SDS011;23769;52.478;13.448;2022-10-22T07:31:06;13.77;;;10.93;;
37945;SDS011;23769;52.478;13.448;2022-10-22T07:33:33;16.30;;;11.50;;
37945;SDS011;23769;52.478;13.448;2022-10-22T07:36:01;14.40;;;10.77;;
37945;SDS011;23769;52.478;13.448;2022-10-22T07:38:29;12.45;;;9.90;;
37945;SDS011;23769;52.478;13.448;2022-10-22T07:40:56;15.02;;;10.75;;
37945;SDS011;23769;52.478;13.448;2022-10-22T07:43:23;15.57;;;11.85;;
37945;SDS011;23769;52.478;13.448;2022-10-22T07:45:50;13.80;;;10.13;;
37945;SDS011;23769;52.478;13.448;2022-10-22T07:48:21;19.45;;;12.25;;
37945;SDS011;23769;52.478;13.448;2022-10-22T07:50:48;14.18;;;9.85;;
37945;SDS011;23769;52.478;13.448;2022-10-22T07:53:15;11.90;;;9.40;;
37945;SDS011;23769;52.478;13.448;2022-10-22T07:55:42;11.40;;;8.77;;
37945;SDS011;23769;52.478;13.448;2022-10-22T07:58:09;12.38;;;10.05;;
37945;SDS011;23769;52.478;13.448;2022-10-22T08:00:36;10.63;;;7.93;;
37945;SDS011;23769;52.478;13.448;2022-10-22T08:03:03;10.18;;;8.15;;
37945;SDS011;23769;52.478;13.448;2022-10-22T08:05:32;11.45;;;8.90;;
37945;SDS011;23769;52.478;13.448;2022-10-22T08:07:59;14.75;;;9.73;;
37945;SDS011;23769;52.478;13.448;2022-10-22T08:10:26;11.18;;;8.60;;
37945;SDS011;23769;52.478;13.448;2022-10-22T08:12:53;12.77;;;8.50;;
37945;SDS011;23769;52.478;13.448;2022-10-22T08:15:20;10.90;;;8.48;;
37945;SDS011;23769;52.478;13.448;2022-10-22T08:17:49;19.50;;;14.40;;
37945;SDS011;23769;52.478;13.448;2022-10-22T08:20:16;13.07;;;9.82;;
37945;SDS011;23769;52.478;13.448;2022-10-22T08:22:45;14.55;;;9.75;;
37945;SDS011;23769;52.478;13.448;2022-10-22T08:25:12;11.55;;;8.70;;
37945;SDS011;23769;52.478;13.448;2022-10-22T08:27:39;11.20;;;8.60;;
37945;SDS011;23769;52.478;13.448;2022-10-22T08:30:07;11.93;;;8.68;;
37945;SDS011;23769;52.478;13.448;2022-10-22T08:32:34;12.35;;;8.50;;
37945;SDS011;23769;52.478;13.448;2022-10-22T08:35:01;11.57;;;8.52;;
37945;SDS011;23769;52.478;13.448;2022-10-22T08:37:28;12.43;;;9.38;;
37945;SDS011;23769;52.478;13.448;2022-10-22T08:39:57;14.65;;;9.30;;
37945;SDS011;23769;52.478;13.448;2022-10-22T08:42:32;9.57;;;8.07;;
37945;SDS011;23769;52.478;13.448;2022-10-22T08:45:07;10.38;;;8.60;;
37945;SDS011;23769;52.478;13.448;2022-10-22T08:47:43;10.40;;;8.13;;
37945;SDS011;23769;52.478;13.448;2022-10-22T08:50:14;12.25;;;8.70;;
37945;SDS011;23769;52.478;13.448;2022-10-22T08:52:43;9.95;;;6.97;;
37945;SDS011;23769;52.478;13.448;2022-10-22T08:55:13;10.52;;;8.25;;
37945;SDS011;23769;52.478;13.448;2022-10-22T08:57:44;11.50;;;8.75;;
37945;SDS011;23769;52.478;13.448;2022-10-22T09:00:13;10.25;;;7.80;;
37945;SDS011;23769;52.478;13.448;2022-10-22T09:02:44;11.55;;;9.00;;
37945;SDS011;23769;52.478;13.448;2022-10-22T09:05:16;10.50;;;8.13;;
37945;SDS011;23769;52.478;13.448;2022-10-22T09:07:47;12.15;;;10.05;;
37945;SDS011;23769;52.478;13.448;2022-10-22T09:10:16;11.52;;;9.05;;
37945;SDS011;23769;52.478;13.448;2022-10-22T09:12:44;11.60;;;8.18;;
37945;SDS011;23769;52.478;13.448;2022-10-22T09:15:12;9.35;;;8.02;;
37945;SDS011;23769;52.478;13.448;2022-10-22T09:17:40;12.80;;;8.65;;
37945;SDS011;23769;52.478;13.448;2022-10-22T09:20:12;10.43;;;7.82;;
37945;SDS011;23769;52.478;13.448;2022-10-22T09:22:42;11.30;;;8.25;;
37945;SDS011;23769;52.478;13.448;2022-10-22T09:25:22;12.43;;;8.45;;
37945;SDS011;23769;52.478;13.448;2022-10-22T09:27:50;11.35;;;9.13;;
37945;SDS011;23769;52.478;13.448;2022-10-22T09:30:22;11.70;;;8.35;;
37945;SDS011;23769;52.478;13.448;2022-10-22T09:32:50;12.90;;;9.27;;
37945;SDS011;23769;52.478;13.448;2022-10-22T09:35:20;11.43;;;8.50;;
37945;SDS011;23769;52.478;13.448;2022-10-22T09:37:48;13.05;;;9.43;;
37945;SDS011;23769;52.478;13.448;2022-10-22T09:40:16;13.05;;;8.45;;
37945;SDS011;23769;52.478;13.448;2022-10-22T09:42:45;12.05;;;8.30;;
37945;SDS011;23769;52.478;13.448;2022-10-22T09:45:17;11.90;;;9.90;;
37945;SDS011;23769;52.478;13.448;2022-10-22T09:47:45;13.00;;;9.52;;
37945;SDS011;23769;52.478;13.448;2022-10-22T09:50:20;11.98;;;9.30;;
37945;SDS011;23769;52.478;13.448;2022-10-22T09:52:56;10.23;;;7.47;;
37945;SDS011;23769;52.478;13.448;2022-10-22T09:55:24;11.98;;;9.82;;
37945;SDS011;23769;52.478;13.448;2022-10-22T09:57:53;9.40;;;8.40;;
37945;SDS011;23769;52.478;13.448;2022-10-22T10:00:21;9.93;;;8.02;;
37945;SDS011;23769;52.478;13.448;2022-10-22T10:02:52;12.60;;;7.47;;
37945;SDS011;23769;52.478;13.448;2022-10-22T10:05:23;8.43;;;6.78;;
37945;SDS011;23769;52.478;13.448;2022-10-22T10:07:51;12.70;;;9.52;;
37945;SDS011;23769;52.478;13.448;2022-10-22T10:10:18;12.27;;;9.05;;
37945;SDS011;23769;52.478;13.448;2022-10-22T10:12:47;13.70;;;8.70;;
37945;SDS011;23769;52.478;13.448;2022-10-22T10:15:21;11.82;;;8.68;;
37945;SDS011;23769;52.478;13.448;2022-10-22T10:17:53;13.87;;;9.80;;
37945;SDS011;23769;52.478;13.448;2022-10-22T10:20:27;10.48;;;7.47;;
37945;SDS011;23769;52.478;13.448;2022-10-22T10:22:57;11.88;;;7.97;;
37945;SDS011;23769;52.478;13.448;2022-10-22T10:25:31;11.65;;;8.57;;
37945;SDS011;23769;52.478;13.448;2022-10-22T10:28:03;12.00;;;8.40;;
37945;SDS011;23769;52.478;13.448;2022-10-22T10:30:37;11.65;;;9.07;;
37945;SDS011;23769;52.478;13.448;2022-10-22T10:35:37;11.50;;;8.35;;
37945;SDS011;23769;52.478;13.448;2022-10-22T10:38:11;12.85;;;8.27;;
37945;SDS011;23769;52.478;13.448;2022-10-22T10:40:44;11.00;;;8.30;;
37945;SDS011;23769;52.478;13.448;2022-10-22T10:43:14;13.82;;;8.93;;
37945;SDS011;23769;52.478;13.448;2022-10-22T10:45:47;11.52;;;8.02;;
37945;SDS011;23769;52.478;13.448;2022-10-22T10:48:21;12.00;;;9.68;;
37945;SDS011;23769;52.478;13.448;2022-10-22T10:50:55;14.32;;;11.75;;
37945;SDS011;23769;52.478;13.448;2022-10-22T10:53:25;14.13;;;8.52;;
37945;SDS011;23769;52.478;13.448;2022-10-22T10:55:56;14.07;;;8.93;;
37945;SDS011;23769;52.478;13.448;2022-10-22T10:58:29;16.08;;;9.32;;
37945;SDS011;23769;52.478;13.448;2022-10-22T11:01:00;14.50;;;10.10;;
37945;SDS011;23769;52.478;13.448;2022-10-22T11:03:34;14.65;;;10.65;;
37945;SDS011;23769;52.478;13.448;2022-10-22T11:06:02;14.30;;;9.50;;
37945;SDS011;23769;52.478;13.448;2022-10-22T11:08:30;10.77;;;8.32;;
37945;SDS011;23769;52.478;13.448;2022-10-22T11:10:58;10.77;;;9.25;;
37945;SDS011;23769;52.478;13.448;2022-10-22T11:13:27;9.40;;;6.93;;
37945;SDS011;23769;52.478;13.448;2022-10-22T11:15:57;9.93;;;7.63;;
37945;SDS011;23769;52.478;13.448;2022-10-22T11:18:27;14.70;;;11.30;;
37945;SDS011;23769;52.478;13.448;2022-10-22T11:21:00;15.60;;;10.30;;
37945;SDS011;23769;52.478;13.448;2022-10-22T11:23:31;9.85;;;8.60;;
37945;SDS011;23769;52.478;13.448;2022-10-22T11:25:59;11.40;;;8.57;;
37945;SDS011;23769;52.478;13.448;2022-10-22T11:28:27;13.07;;;9.27;;
37945;SDS011;23769;52.478;13.448;2022-10-22T11:30:59;16.67;;;9.68;;
37945;SDS011;23769;52.478;13.448;2022-10-22T11:33:31;11.40;;;8.57;;
37945;SDS011;23769;52.478;13.448;2022-10-22T11:36:01;12.68;;;10.00;;
37945;SDS011;23769;52.478;13.448;2022-10-22T11:38:29;14.95;;;10.13;;
37945;SDS011;23769;52.478;13.448;2022-10-22T11:40:59;16.38;;;10.73;;
37945;SDS011;23769;52.478;13.448;2022-10-22T11:43:28;14.63;;;11.35;;
37945;SDS011;23769;52.478;13.448;2022-10-22T11:45:57;15.98;;;12.35;;
37945;SDS011;23769;52.478;13.448;2022-10-22T11:48:33;16.58;;;12.80;;
37945;SDS011;23769;52.478;13.448;2022-10-22T11:51:01;13.05;;;10.43;;
37945;SDS011;23769;52.478;13.448;2022-10-22T11:53:29;15.20;;;10.50;;
37945;SDS011;23769;52.478;13.448;2022-10-22T11:55:57;12.88;;;9.98;;
37945;SDS011;23769;52.478;13.448;2022-10-22T11:58:33;13.67;;;10.27;;
37945;SDS011;23769;52.478;13.448;2022-10-22T12:03:49;14.43;;;8.52;;
37945;SDS011;23769;52.478;13.448;2022-10-22T12:06:18;10.70;;;8.23;;
37945;SDS011;23769;52.478;13.448;2022-10-22T12:08:45;13.23;;;9.10;;
37945;SDS011;23769;52.478;13.448;2022-10-22T12:11:19;11.23;;;7.63;;
37945;SDS011;23769;52.478;13.448;2022-10-22T12:13:50;10.45;;;7.50;;
37945;SDS011;23769;52.478;13.448;2022-10-22T12:16:22;10.45;;;7.88;;
37945;SDS011;23769;52.478;13.448;2022-10-22T12:18:52;11.15;;;7.25;;
37945;SDS011;23769;52.478;13.448;2022-10-22T12:21:21;15.25;;;10.20;;
37945;SDS011;23769;52.478;13.448;2022-10-22T12:23:48;10.30;;;6.90;;
37945;SDS011;23769;52.478;13.448;2022-10-22T12:26:23;13.32;;;8.95;;
37945;SDS011;23769;52.478;13.448;2022-10-22T12:28:50;10.98;;;8.52;;
37945;SDS011;23769;52.478;13.448;2022-10-22T12:31:22;9.43;;;7.75;;
37945;SDS011;23769;52.478;13.448;2022-10-22T12:33:55;10.85;;;6.07;;
37945;SDS011;23769;52.478;13.448;2022-10-22T12:36:24;9.63;;;6.35;;
37945;SDS011;23769;52.478;13.448;2022-10-22T12:38:51;10.98;;;5.88;;
37945;SDS011;23769;52.478;13.448;2022-10-22T12:41:18;7.72;;;4.97;;
37945;SDS011;23769;52.478;13.448;2022-10-22T12:43:45;8.38;;;5.00;;
37945;SDS011;23769;52.478;13.448;2022-10-22T12:46:13;6.70;;;4.57;;
37945;SDS011;23769;52.478;13.448;2022-10-22T12:48:42;5.82;;;4.18;;
37945;SDS011;23769;52.478;13.448;2022-10-22T12:51:12;12.50;;;6.47;;
37945;SDS011;23769;52.478;13.448;2022-10-22T12:53:42;6.70;;;3.78;;
37945;SDS011;23769;52.478;13.448;2022-10-22T12:56:11;6.43;;;4.43;;
37945;SDS011;23769;52.478;13.448;2022-10-22T12:58:39;7.43;;;4.43;;
37945;SDS011;23769;52.478;13.448;2022-10-22T13:01:08;6.60;;;3.90;;
37945;SDS011;23769;52.478;13.448;2022-10-22T13:03:40;6.57;;;4.50;;
37945;SDS011;23769;52.478;13.448;2022-10-22T13:06:19;6.90;;;4.63;;
37945;SDS011;23769;52.478;13.448;2022-10-22T13:08:54;7.70;;;4.22;;
37945;SDS011;23769;52.478;13.448;2022-10-22T13:11:21;9.32;;;4.45;;
37945;SDS011;23769;52.478;13.448;2022-10-22T13:13:49;7.07;;;4.38;;
37945;SDS011;23769;52.478;13.448;2022-10-22T13:16:17;11.07;;;6.53;;
37945;SDS011;23769;52.478;13.448;2022-10-22T13:18:45;17.20;;;11.57;;
37945;SDS011;23769;52.478;13.448;2022-10-22T13:21:27;7.15;;;4.13;;
37945;SDS011;23769;52.478;13.448;2022-10-22T13:23:55;9.02;;;4.18;;
37945;SDS011;23769;52.478;13.448;2022-10-22T13:26:24;7.68;;;3.53;;
37945;SDS011;23769;52.478;13.448;2022-10-22T13:28:52;6.32;;;3.40;;
37945;SDS011;23769;52.478;13.448;2022-10-22T13:31:21;10.60;;;7.50;;
37945;SDS011;23769;52.478;13.448;2022-10-22T13:33:50;14.52;;;9.75;;
37945;SDS011;23769;52.478;13.448;2022-10-22T13:36:19;13.02;;;5.82;;
37945;SDS011;23769;52.478;13.448;2022-10-22T13:38:48;8.43;;;4.10;;
37945;SDS011;23769;52.478;13.448;2022-10-22T13:41:19;9.73;;;4.50;;
37945;SDS011;23769;52.478;13.448;2022-10-22T13:43:46;7.65;;;3.95;;
37945;SDS011;23769;52.478;13.448;2022-10-22T13:46:13;9.70;;;6.63;;
37945;SDS011;23769;52.478;13.448;2022-10-22T13:48:41;9.05;;;4.28;;
37945;SDS011;23769;52.478;13.448;2022-10-22T13:51:10;9.70;;;5.43;;
37945;SDS011;23769;52.478;13.448;2022-10-22T13:53:39;6.95;;;4.28;;
37945;SDS011;23769;52.478;13.448;2022-10-22T13:56:09;8.18;;;4.10;;
37945;SDS011;23769;52.478;13.448;2022-10-22T13:58:38;5.93;;;2.90;;
37945;SDS011;23769;52.478;13.448;2022-10-22T14:01:05;9.50;;;3.83;;
37945;SDS011;23769;52.478;13.448;2022-10-22T14:03:37;7.10;;;3.97;;
37945;SDS011;23769;52.478;13.448;2022-10-22T14:06:06;9.05;;;3.47;;
37945;SDS011;23769;52.478;13.448;2022-10-22T14:08:33;7.53;;;3.50;;
37945;SDS011;23769;52.478;13.448;2022-10-22T14:11:00;7.60;;;2.97;;
37945;SDS011;23769;52.478;13.448;2022-10-22T14:13:29;6.50;;;3.13;;
37945;SDS011;23769;52.478;13.448;2022-10-22T14:15:56;6.53;;;2.65;;
37945;SDS011;23769;52.478;13.448;2022-10-22T14:18:24;6.45;;;3.85;;
37945;SDS011;23769;52.478;13.448;2022-10-22T14:20:53;14.95;;;8.77;;
37945;SDS011;23769;52.478;13.448;2022-10-22T14:23:21;16.30;;;9.10;;
37945;SDS011;23769;52.478;13.448;2022-10-22T14:25:48;6.47;;;3.20;;
37945;SDS011;23769;52.478;13.448;2022-10-22T14:28:16;7.78;;;3.50;;
37945;SDS011;23769;52.478;13.448;2022-10-22T14:30:44;7.35;;;4.47;;
37945;SDS011;23769;52.478;13.448;2022-10-22T14:33:12;11.13;;;4.55;;